sensor_id;sensor_type;location;lat;lon;timestamp;temperature;humidity
48860;DHT22;34679;51.436;-2.518;2023-05-23T00:00:40;12.50;99.90
48860;DHT22;34679;51.436;-2.518;2023-05-23T00:03:06;12.40;99.90
48860;DHT22;34679;51.436;-2.518;2023-05-23T00:05:33;12.50;99.90
48860;DHT22;34679;51.436;-2.518;2023-05-23T00:08:00;12.50;99.90
48860;DHT22;34679;51.436;-2.518;2023-05-23T00:10:26;12.50;99.90
48860;DHT22;34679;51.436;-2.518;2023-05-23T00:12:51;12.50;99.90
48860;DHT22;34679;51.436;-2.518;2023-05-23T00:15:17;12.40;99.90
48860;DHT22;34679;51.436;-2.518;2023-05-23T00:17:43;12.40;99.90
48860;DHT22;34679;51.436;-2.518;2023-05-23T00:20:09;12.30;99.90
48860;DHT22;34679;51.436;-2.518;2023-05-23T00:22:37;12.30;99.90
48860;DHT22;34679;51.436;-2.518;2023-05-23T00:25:10;12.30;99.90
48860;DHT22;34679;51.436;-2.518;2023-05-23T00:27:36;12.20;99.90
48860;DHT22;34679;51.436;-2.518;2023-05-23T00:30:02;12.20;99.90
48860;DHT22;34679;51.436;-2.518;2023-05-23T00:32:28;12.20;99.90
48860;DHT22;34679;51.436;-2.518;2023-05-23T00:34:54;12.20;99.90
48860;DHT22;34679;51.436;-2.518;2023-05-23T00:37:20;12.10;99.90
48860;DHT22;34679;51.436;-2.518;2023-05-23T00:39:47;12.10;99.90
48860;DHT22;34679;51.436;-2.518;2023-05-23T00:42:13;12.00;99.90
48860;DHT22;34679;51.436;-2.518;2023-05-23T00:44:38;12.00;99.90
48860;DHT22;34679;51.436;-2.518;2023-05-23T00:47:06;11.90;99.90
48860;DHT22;34679;51.436;-2.518;2023-05-23T00:49:33;11.90;99.90
48860;DHT22;34679;51.436;-2.518;2023-05-23T00:51:59;11.90;99.90
48860;DHT22;34679;51.436;-2.518;2023-05-23T00:54:29;11.80;99.90
48860;DHT22;34679;51.436;-2.518;2023-05-23T00:56:58;11.70;99.90
48860;DHT22;34679;51.436;-2.518;2023-05-23T00:59:25;11.70;99.90
48860;DHT22;34679;51.436;-2.518;2023-05-23T01:01:51;11.70;99.90
48860;DHT22;34679;51.436;-2.518;2023-05-23T01:04:19;11.60;99.90
48860;DHT22;34679;51.436;-2.518;2023-05-23T01:06:45;11.50;99.90
48860;DHT22;34679;51.436;-2.518;2023-05-23T01:09:17;11.50;99.90
48860;DHT22;34679;51.436;-2.518;2023-05-23T01:12:13;11.50;99.90
48860;DHT22;34679;51.436;-2.518;2023-05-23T01:20:21;11.20;99.90
48860;DHT22;34679;51.436;-2.518;2023-05-23T01:23:04;11.20;99.90
48860;DHT22;34679;51.436;-2.518;2023-05-23T01:25:49;11.20;99.90
48860;DHT22;34679;51.436;-2.518;2023-05-23T01:28:28;11.20;99.90
48860;DHT22;34679;51.436;-2.518;2023-05-23T01:30:57;11.10;99.90
48860;DHT22;34679;51.436;-2.518;2023-05-23T01:33:24;11.10;99.90
48860;DHT22;34679;51.436;-2.518;2023-05-23T01:35:52;11.20;99.90
48860;DHT22;34679;51.436;-2.518;2023-05-23T01:38:18;11.10;99.90
48860;DHT22;34679;51.436;-2.518;2023-05-23T01:40:43;11.20;99.90
48860;DHT22;34679;51.436;-2.518;2023-05-23T01:43:09;11.20;99.90
48860;DHT22;34679;51.436;-2.518;2023-05-23T01:45:36;11.20;99.90
48860;DHT22;34679;51.436;-2.518;2023-05-23T01:48:03;11.20;99.90
48860;DHT22;34679;51.436;-2.518;2023-05-23T01:50:31;11.10;99.90
48860;DHT22;34679;51.436;-2.518;2023-05-23T01:52:57;11.20;99.90
48860;DHT22;34679;51.436;-2.518;2023-05-23T01:55:24;11.20;99.90
48860;DHT22;34679;51.436;-2.518;2023-05-23T01:57:54;11.20;99.90
48860;DHT22;34679;51.436;-2.518;2023-05-23T02:00:20;11.20;99.90
48860;DHT22;34679;51.436;-2.518;2023-05-23T02:02:46;11.20;99.90
48860;DHT22;34679;51.436;-2.518;2023-05-23T02:05:12;11.20;99.90
48860;DHT22;34679;51.436;-2.518;2023-05-23T02:07:38;11.20;99.90
48860;DHT22;34679;51.436;-2.518;2023-05-23T02:10:08;11.10;99.90
48860;DHT22;34679;51.436;-2.518;2023-05-23T02:12:34;11.10;99.90
48860;DHT22;34679;51.436;-2.518;2023-05-23T02:15:00;11.20;99.90
48860;DHT22;34679;51.436;-2.518;2023-05-23T02:17:26;11.20;99.90
48860;DHT22;34679;51.436;-2.518;2023-05-23T02:19:52;11.10;99.90
48860;DHT22;34679;51.436;-2.518;2023-05-23T02:22:22;11.10;99.90
48860;DHT22;34679;51.436;-2.518;2023-05-23T02:24:49;11.10;99.90
48860;DHT22;34679;51.436;-2.518;2023-05-23T02:27:14;11.00;99.90
48860;DHT22;34679;51.436;-2.518;2023-05-23T02:29:40;11.10;99.90
48860;DHT22;34679;51.436;-2.518;2023-05-23T02:32:06;11.10;99.90
48860;DHT22;34679;51.436;-2.518;2023-05-23T02:34:32;11.00;99.90
48860;DHT22;34679;51.436;-2.518;2023-05-23T02:36:57;10.90;99.90
48860;DHT22;34679;51.436;-2.518;2023-05-23T02:39:23;10.90;99.90
48860;DHT22;34679;51.436;-2.518;2023-05-23T02:41:49;10.90;99.90
48860;DHT22;34679;51.436;-2.518;2023-05-23T02:44:15;10.80;99.90
48860;DHT22;34679;51.436;-2.518;2023-05-23T02:46:44;10.90;99.90
48860;DHT22;34679;51.436;-2.518;2023-05-23T02:49:19;10.80;99.90
48860;DHT22;34679;51.436;-2.518;2023-05-23T02:51:44;10.70;99.90
48860;DHT22;34679;51.436;-2.518;2023-05-23T02:54:10;10.60;99.90
48860;DHT22;34679;51.436;-2.518;2023-05-23T02:56:36;10.50;99.90
48860;DHT22;34679;51.436;-2.518;2023-05-23T02:59:01;10.40;99.90
48860;DHT22;34679;51.436;-2.518;2023-05-23T03:01:28;10.40;99.90
48860;DHT22;34679;51.436;-2.518;2023-05-23T03:03:54;10.30;99.90
48860;DHT22;34679;51.436;-2.518;2023-05-23T03:06:20;10.20;99.90
48860;DHT22;34679;51.436;-2.518;2023-05-23T03:08:47;10.10;99.90
48860;DHT22;34679;51.436;-2.518;2023-05-23T03:11:13;10.10;99.90
48860;DHT22;34679;51.436;-2.518;2023-05-23T03:13:39;10.00;99.90
48860;DHT22;34679;51.436;-2.518;2023-05-23T03:16:04;9.90;99.90
48860;DHT22;34679;51.436;-2.518;2023-05-23T03:18:30;9.90;99.90
48860;DHT22;34679;51.436;-2.518;2023-05-23T03:20:56;9.80;99.90
48860;DHT22;34679;51.436;-2.518;2023-05-23T03:23:22;9.80;99.90
48860;DHT22;34679;51.436;-2.518;2023-05-23T03:25:48;9.70;99.90
48860;DHT22;34679;51.436;-2.518;2023-05-23T03:28:14;9.70;99.90
48860;DHT22;34679;51.436;-2.518;2023-05-23T03:30:39;9.80;99.90
48860;DHT22;34679;51.436;-2.518;2023-05-23T03:33:08;9.80;99.90
48860;DHT22;34679;51.436;-2.518;2023-05-23T03:35:34;9.80;99.90
48860;DHT22;34679;51.436;-2.518;2023-05-23T03:38:00;9.90;99.90
48860;DHT22;34679;51.436;-2.518;2023-05-23T03:40:25;9.80;99.90
48860;DHT22;34679;51.436;-2.518;2023-05-23T03:43:02;9.80;99.90
48860;DHT22;34679;51.436;-2.518;2023-05-23T03:45:29;9.80;99.90
48860;DHT22;34679;51.436;-2.518;2023-05-23T03:47:56;9.80;99.90
48860;DHT22;34679;51.436;-2.518;2023-05-23T03:50:21;9.80;99.90
48860;DHT22;34679;51.436;-2.518;2023-05-23T03:52:47;9.70;99.90
48860;DHT22;34679;51.436;-2.518;2023-05-23T03:55:13;9.70;99.90
48860;DHT22;34679;51.436;-2.518;2023-05-23T03:57:39;9.70;99.90
48860;DHT22;34679;51.436;-2.518;2023-05-23T04:00:05;9.70;99.90
48860;DHT22;34679;51.436;-2.518;2023-05-23T04:02:36;9.60;99.90
48860;DHT22;34679;51.436;-2.518;2023-05-23T04:05:04;9.60;99.90
48860;DHT22;34679;51.436;-2.518;2023-05-23T04:07:30;9.60;99.90
48860;DHT22;34679;51.436;-2.518;2023-05-23T04:09:59;9.60;99.90
48860;DHT22;34679;51.436;-2.518;2023-05-23T04:12:25;9.60;99.90
48860;DHT22;34679;51.436;-2.518;2023-05-23T04:14:51;9.60;99.90
48860;DHT22;34679;51.436;-2.518;2023-05-23T04:17:17;9.60;99.90
48860;DHT22;34679;51.436;-2.518;2023-05-23T04:19:43;9.60;99.90
48860;DHT22;34679;51.436;-2.518;2023-05-23T04:22:09;9.60;99.90
48860;DHT22;34679;51.436;-2.518;2023-05-23T04:24:35;9.70;99.90
48860;DHT22;34679;51.436;-2.518;2023-05-23T04:27:01;9.80;99.90
48860;DHT22;34679;51.436;-2.518;2023-05-23T04:29:27;9.80;99.90
48860;DHT22;34679;51.436;-2.518;2023-05-23T04:31:56;9.80;99.90
48860;DHT22;34679;51.436;-2.518;2023-05-23T04:34:22;9.90;99.90
48860;DHT22;34679;51.436;-2.518;2023-05-23T04:36:48;9.90;99.90
48860;DHT22;34679;51.436;-2.518;2023-05-23T04:39:14;10.00;99.90
48860;DHT22;34679;51.436;-2.518;2023-05-23T04:41:41;10.10;99.90
48860;DHT22;34679;51.436;-2.518;2023-05-23T04:44:09;10.20;99.90
48860;DHT22;34679;51.436;-2.518;2023-05-23T04:46:35;10.50;99.90
48860;DHT22;34679;51.436;-2.518;2023-05-23T04:49:01;10.60;99.90
48860;DHT22;34679;51.436;-2.518;2023-05-23T04:51:28;10.70;99.90
48860;DHT22;34679;51.436;-2.518;2023-05-23T04:53:54;10.70;99.90
48860;DHT22;34679;51.436;-2.518;2023-05-23T04:56:20;10.90;99.90
48860;DHT22;34679;51.436;-2.518;2023-05-23T04:58:46;11.00;99.90
48860;DHT22;34679;51.436;-2.518;2023-05-23T05:01:12;11.20;99.90
48860;DHT22;34679;51.436;-2.518;2023-05-23T05:03:39;11.30;99.90
48860;DHT22;34679;51.436;-2.518;2023-05-23T05:06:05;11.60;99.90
48860;DHT22;34679;51.436;-2.518;2023-05-23T05:08:31;11.70;99.90
48860;DHT22;34679;51.436;-2.518;2023-05-23T05:10:57;11.70;99.90
48860;DHT22;34679;51.436;-2.518;2023-05-23T05:13:22;11.70;99.90
48860;DHT22;34679;51.436;-2.518;2023-05-23T05:15:48;11.80;99.90
48860;DHT22;34679;51.436;-2.518;2023-05-23T05:18:14;11.70;99.90
48860;DHT22;34679;51.436;-2.518;2023-05-23T05:20:40;11.80;99.90
48860;DHT22;34679;51.436;-2.518;2023-05-23T05:23:06;12.30;99.90
48860;DHT22;34679;51.436;-2.518;2023-05-23T05:25:34;12.60;99.90
48860;DHT22;34679;51.436;-2.518;2023-05-23T05:28:01;12.90;99.90
48860;DHT22;34679;51.436;-2.518;2023-05-23T05:30:33;13.70;99.90
48860;DHT22;34679;51.436;-2.518;2023-05-23T05:33:02;14.50;99.90
48860;DHT22;34679;51.436;-2.518;2023-05-23T05:35:30;15.30;99.90
48860;DHT22;34679;51.436;-2.518;2023-05-23T05:37:57;15.90;99.90
48860;DHT22;34679;51.436;-2.518;2023-05-23T05:40:23;16.40;99.90
48860;DHT22;34679;51.436;-2.518;2023-05-23T05:42:48;17.20;99.90
48860;DHT22;34679;51.436;-2.518;2023-05-23T05:45:14;17.80;99.90
48860;DHT22;34679;51.436;-2.518;2023-05-23T05:47:40;18.30;99.90
48860;DHT22;34679;51.436;-2.518;2023-05-23T05:50:06;19.10;99.90
48860;DHT22;34679;51.436;-2.518;2023-05-23T05:52:33;18.40;99.90
48860;DHT22;34679;51.436;-2.518;2023-05-23T05:55:03;18.40;99.90
48860;DHT22;34679;51.436;-2.518;2023-05-23T05:57:31;19.30;99.90
48860;DHT22;34679;51.436;-2.518;2023-05-23T05:59:57;19.00;99.70
48860;DHT22;34679;51.436;-2.518;2023-05-23T06:02:23;18.90;99.90
48860;DHT22;34679;51.436;-2.518;2023-05-23T06:04:48;18.30;99.90
48860;DHT22;34679;51.436;-2.518;2023-05-23T06:07:14;18.30;99.90
48860;DHT22;34679;51.436;-2.518;2023-05-23T06:09:40;18.40;99.90
48860;DHT22;34679;51.436;-2.518;2023-05-23T06:12:05;18.50;99.90
48860;DHT22;34679;51.436;-2.518;2023-05-23T06:14:31;18.50;99.90
48860;DHT22;34679;51.436;-2.518;2023-05-23T06:16:57;19.70;99.90
48860;DHT22;34679;51.436;-2.518;2023-05-23T06:19:24;19.90;98.80
48860;DHT22;34679;51.436;-2.518;2023-05-23T06:21:50;19.70;99.10
48860;DHT22;34679;51.436;-2.518;2023-05-23T06:24:15;19.90;98.70
48860;DHT22;34679;51.436;-2.518;2023-05-23T06:26:41;19.60;99.20
48860;DHT22;34679;51.436;-2.518;2023-05-23T06:29:07;18.80;99.90
48860;DHT22;34679;51.436;-2.518;2023-05-23T06:31:33;18.70;99.90
48860;DHT22;34679;51.436;-2.518;2023-05-23T06:34:00;19.30;99.60
48860;DHT22;34679;51.436;-2.518;2023-05-23T06:36:25;19.60;98.80
48860;DHT22;34679;51.436;-2.518;2023-05-23T06:38:51;18.80;99.70
48860;DHT22;34679;51.436;-2.518;2023-05-23T06:41:17;19.00;99.60
48860;DHT22;34679;51.436;-2.518;2023-05-23T06:43:42;18.90;99.90
48860;DHT22;34679;51.436;-2.518;2023-05-23T06:46:08;19.20;99.70
48860;DHT22;34679;51.436;-2.518;2023-05-23T06:48:34;19.30;99.50
48860;DHT22;34679;51.436;-2.518;2023-05-23T06:50:59;19.10;99.60
48860;DHT22;34679;51.436;-2.518;2023-05-23T06:53:25;19.10;99.40
48860;DHT22;34679;51.436;-2.518;2023-05-23T06:55:51;18.80;99.80
48860;DHT22;34679;51.436;-2.518;2023-05-23T06:58:16;18.70;99.90
48860;DHT22;34679;51.436;-2.518;2023-05-23T07:00:42;18.50;99.90
48860;DHT22;34679;51.436;-2.518;2023-05-23T07:03:08;18.50;99.90
48860;DHT22;34679;51.436;-2.518;2023-05-23T07:05:33;18.50;99.90
48860;DHT22;34679;51.436;-2.518;2023-05-23T07:08:00;18.90;99.40
48860;DHT22;34679;51.436;-2.518;2023-05-23T07:10:26;18.80;99.60
48860;DHT22;34679;51.436;-2.518;2023-05-23T07:12:52;18.70;98.90
48860;DHT22;34679;51.436;-2.518;2023-05-23T07:15:18;18.70;99.30
48860;DHT22;34679;51.436;-2.518;2023-05-23T07:17:44;18.60;99.40
48860;DHT22;34679;51.436;-2.518;2023-05-23T07:20:10;18.30;99.50
48860;DHT22;34679;51.436;-2.518;2023-05-23T07:22:36;18.60;99.50
48860;DHT22;34679;51.436;-2.518;2023-05-23T07:25:01;18.00;99.90
48860;DHT22;34679;51.436;-2.518;2023-05-23T07:27:28;18.30;99.90
48860;DHT22;34679;51.436;-2.518;2023-05-23T07:29:53;18.10;99.50
48860;DHT22;34679;51.436;-2.518;2023-05-23T07:32:19;17.90;99.90
48860;DHT22;34679;51.436;-2.518;2023-05-23T07:34:45;18.20;99.60
48860;DHT22;34679;51.436;-2.518;2023-05-23T07:37:10;18.60;99.30
48860;DHT22;34679;51.436;-2.518;2023-05-23T07:39:36;18.00;99.40
48860;DHT22;34679;51.436;-2.518;2023-05-23T07:42:02;17.80;99.90
48860;DHT22;34679;51.436;-2.518;2023-05-23T07:44:28;17.80;99.90
48860;DHT22;34679;51.436;-2.518;2023-05-23T07:46:53;18.00;99.90
48860;DHT22;34679;51.436;-2.518;2023-05-23T07:49:19;17.90;99.90
48860;DHT22;34679;51.436;-2.518;2023-05-23T07:51:45;17.90;99.90
48860;DHT22;34679;51.436;-2.518;2023-05-23T07:54:11;17.70;99.90
48860;DHT22;34679;51.436;-2.518;2023-05-23T07:56:37;17.90;99.90
48860;DHT22;34679;51.436;-2.518;2023-05-23T07:59:08;17.50;99.90
48860;DHT22;34679;51.436;-2.518;2023-05-23T08:01:34;17.30;99.90
48860;DHT22;34679;51.436;-2.518;2023-05-23T08:04:01;17.50;99.90
48860;DHT22;34679;51.436;-2.518;2023-05-23T08:06:28;17.30;99.90
48860;DHT22;34679;51.436;-2.518;2023-05-23T08:08:53;17.00;99.90
48860;DHT22;34679;51.436;-2.518;2023-05-23T08:11:19;17.30;99.90
48860;DHT22;34679;51.436;-2.518;2023-05-23T08:13:45;17.00;99.90
48860;DHT22;34679;51.436;-2.518;2023-05-23T08:16:10;17.00;99.90
48860;DHT22;34679;51.436;-2.518;2023-05-23T08:18:36;17.00;99.90
48860;DHT22;34679;51.436;-2.518;2023-05-23T08:21:02;17.00;99.90
48860;DHT22;34679;51.436;-2.518;2023-05-23T08:23:28;16.80;99.90
48860;DHT22;34679;51.436;-2.518;2023-05-23T08:25:54;16.60;99.90
48860;DHT22;34679;51.436;-2.518;2023-05-23T08:28:21;16.50;99.90
48860;DHT22;34679;51.436;-2.518;2023-05-23T08:30:47;16.30;99.90
48860;DHT22;34679;51.436;-2.518;2023-05-23T08:33:12;16.30;99.90
48860;DHT22;34679;51.436;-2.518;2023-05-23T08:35:38;16.20;99.90
48860;DHT22;34679;51.436;-2.518;2023-05-23T08:38:05;16.30;99.90
48860;DHT22;34679;51.436;-2.518;2023-05-23T08:40:33;16.40;99.90
48860;DHT22;34679;51.436;-2.518;2023-05-23T08:43:00;16.10;99.90
48860;DHT22;34679;51.436;-2.518;2023-05-23T08:45:26;16.90;99.90
48860;DHT22;34679;51.436;-2.518;2023-05-23T08:47:55;17.40;99.90
48860;DHT22;34679;51.436;-2.518;2023-05-23T08:50:21;17.70;99.90
48860;DHT22;34679;51.436;-2.518;2023-05-23T08:52:57;18.10;99.90
48860;DHT22;34679;51.436;-2.518;2023-05-23T08:55:25;18.70;99.40
48860;DHT22;34679;51.436;-2.518;2023-05-23T08:57:51;19.00;98.90
48860;DHT22;34679;51.436;-2.518;2023-05-23T09:00:18;19.40;98.80
48860;DHT22;34679;51.436;-2.518;2023-05-23T09:02:45;19.70;98.30
48860;DHT22;34679;51.436;-2.518;2023-05-23T09:05:12;20.00;97.80
48860;DHT22;34679;51.436;-2.518;2023-05-23T09:07:38;20.40;97.90
48860;DHT22;34679;51.436;-2.518;2023-05-23T09:10:05;20.60;96.80
48860;DHT22;34679;51.436;-2.518;2023-05-23T09:12:34;20.90;95.50
48860;DHT22;34679;51.436;-2.518;2023-05-23T09:15:07;20.90;96.00
48860;DHT22;34679;51.436;-2.518;2023-05-23T09:17:33;20.80;96.50
48860;DHT22;34679;51.436;-2.518;2023-05-23T09:19:59;20.70;96.70
48860;DHT22;34679;51.436;-2.518;2023-05-23T09:22:26;21.10;96.50
48860;DHT22;34679;51.436;-2.518;2023-05-23T09:24:53;21.50;96.20
48860;DHT22;34679;51.436;-2.518;2023-05-23T09:27:19;22.20;95.50
48860;DHT22;34679;51.436;-2.518;2023-05-23T09:29:45;22.40;94.60
48860;DHT22;34679;51.436;-2.518;2023-05-23T09:32:18;23.00;94.50
48860;DHT22;34679;51.436;-2.518;2023-05-23T09:35:04;23.70;94.20
48860;DHT22;34679;51.436;-2.518;2023-05-23T09:40:02;22.80;94.40
48860;DHT22;34679;51.436;-2.518;2023-05-23T09:42:31;22.30;94.40
48860;DHT22;34679;51.436;-2.518;2023-05-23T09:45:01;21.20;95.70
48860;DHT22;34679;51.436;-2.518;2023-05-23T09:47:27;22.00;95.00
48860;DHT22;34679;51.436;-2.518;2023-05-23T09:49:53;22.70;94.60
48860;DHT22;34679;51.436;-2.518;2023-05-23T09:52:19;23.50;94.20
48860;DHT22;34679;51.436;-2.518;2023-05-23T09:54:45;22.60;93.60
48860;DHT22;34679;51.436;-2.518;2023-05-23T09:57:13;21.00;95.50
48860;DHT22;34679;51.436;-2.518;2023-05-23T09:59:40;20.30;96.70
48860;DHT22;34679;51.436;-2.518;2023-05-23T10:02:10;21.10;95.70
48860;DHT22;34679;51.436;-2.518;2023-05-23T10:04:37;21.90;95.40
48860;DHT22;34679;51.436;-2.518;2023-05-23T10:07:19;22.30;95.00
48860;DHT22;34679;51.436;-2.518;2023-05-23T10:09:54;22.40;94.90
48860;DHT22;34679;51.436;-2.518;2023-05-23T10:15:37;23.40;94.00
48860;DHT22;34679;51.436;-2.518;2023-05-23T10:18:25;24.50;93.30
48860;DHT22;34679;51.436;-2.518;2023-05-23T10:20:57;25.20;92.20
48860;DHT22;34679;51.436;-2.518;2023-05-23T10:23:27;25.10;91.60
48860;DHT22;34679;51.436;-2.518;2023-05-23T10:25:54;24.50;91.90
48860;DHT22;34679;51.436;-2.518;2023-05-23T10:28:20;22.00;92.80
48860;DHT22;34679;51.436;-2.518;2023-05-23T10:30:46;21.40;93.70
48860;DHT22;34679;51.436;-2.518;2023-05-23T10:33:13;21.40;93.80
48860;DHT22;34679;51.436;-2.518;2023-05-23T10:35:43;21.00;94.50
48860;DHT22;34679;51.436;-2.518;2023-05-23T10:41:23;20.50;95.10
48860;DHT22;34679;51.436;-2.518;2023-05-23T10:49:19;20.60;95.30
48860;DHT22;34679;51.436;-2.518;2023-05-23T10:51:51;20.50;95.30
48860;DHT22;34679;51.436;-2.518;2023-05-23T10:54:19;20.50;96.00
48860;DHT22;34679;51.436;-2.518;2023-05-23T10:56:45;20.10;96.40
48860;DHT22;34679;51.436;-2.518;2023-05-23T10:59:20;19.30;96.70
48860;DHT22;34679;51.436;-2.518;2023-05-23T11:01:50;19.40;96.50
48860;DHT22;34679;51.436;-2.518;2023-05-23T11:04:27;19.00;96.70
48860;DHT22;34679;51.436;-2.518;2023-05-23T11:06:54;19.20;96.60
48860;DHT22;34679;51.436;-2.518;2023-05-23T11:09:20;19.50;96.70
48860;DHT22;34679;51.436;-2.518;2023-05-23T11:15:04;19.70;96.50
48860;DHT22;34679;51.436;-2.518;2023-05-23T11:17:17;19.70;96.40
48860;DHT22;34679;51.436;-2.518;2023-05-23T11:20:03;19.70;96.50
48860;DHT22;34679;51.436;-2.518;2023-05-23T11:22:32;19.60;96.60
48860;DHT22;34679;51.436;-2.518;2023-05-23T11:25:00;19.90;96.30
48860;DHT22;34679;51.436;-2.518;2023-05-23T11:27:34;20.00;96.40
48860;DHT22;34679;51.436;-2.518;2023-05-23T11:32:29;19.70;96.50
48860;DHT22;34679;51.436;-2.518;2023-05-23T11:35:02;20.20;95.70
48860;DHT22;34679;51.436;-2.518;2023-05-23T11:37:28;20.40;95.60
48860;DHT22;34679;51.436;-2.518;2023-05-23T11:39:54;19.90;96.00
48860;DHT22;34679;51.436;-2.518;2023-05-23T11:42:21;20.30;95.80
48860;DHT22;34679;51.436;-2.518;2023-05-23T11:44:51;20.90;95.50
48860;DHT22;34679;51.436;-2.518;2023-05-23T11:47:17;21.10;95.40
48860;DHT22;34679;51.436;-2.518;2023-05-23T11:49:44;20.80;95.00
48860;DHT22;34679;51.436;-2.518;2023-05-23T11:52:14;20.40;95.50
48860;DHT22;34679;51.436;-2.518;2023-05-23T11:54:42;20.40;95.60
48860;DHT22;34679;51.436;-2.518;2023-05-23T11:57:09;20.80;95.10
48860;DHT22;34679;51.436;-2.518;2023-05-23T11:59:35;20.80;95.80
48860;DHT22;34679;51.436;-2.518;2023-05-23T12:02:02;20.90;95.60
48860;DHT22;34679;51.436;-2.518;2023-05-23T12:04:28;20.40;95.80
48860;DHT22;34679;51.436;-2.518;2023-05-23T12:06:54;20.90;95.90
48860;DHT22;34679;51.436;-2.518;2023-05-23T12:09:20;21.10;95.80
48860;DHT22;34679;51.436;-2.518;2023-05-23T12:11:48;21.30;95.40
48860;DHT22;34679;51.436;-2.518;2023-05-23T12:14:15;21.20;95.80
48860;DHT22;34679;51.436;-2.518;2023-05-23T12:16:43;21.00;95.30
48860;DHT22;34679;51.436;-2.518;2023-05-23T12:19:11;21.00;95.50
48860;DHT22;34679;51.436;-2.518;2023-05-23T12:21:41;20.60;95.90
48860;DHT22;34679;51.436;-2.518;2023-05-23T12:26:52;19.90;96.60
48860;DHT22;34679;51.436;-2.518;2023-05-23T12:29:19;20.20;96.00
48860;DHT22;34679;51.436;-2.518;2023-05-23T12:31:48;20.60;95.70
48860;DHT22;34679;51.436;-2.518;2023-05-23T12:34:14;20.30;96.50
48860;DHT22;34679;51.436;-2.518;2023-05-23T12:36:40;20.30;96.40
48860;DHT22;34679;51.436;-2.518;2023-05-23T12:39:07;20.20;96.70
48860;DHT22;34679;51.436;-2.518;2023-05-23T12:41:33;20.00;96.70
48860;DHT22;34679;51.436;-2.518;2023-05-23T12:44:00;20.20;96.80
48860;DHT22;34679;51.436;-2.518;2023-05-23T12:46:27;20.70;96.60
48860;DHT22;34679;51.436;-2.518;2023-05-23T12:48:53;21.10;95.90
48860;DHT22;34679;51.436;-2.518;2023-05-23T12:51:19;21.20;96.00
48860;DHT22;34679;51.436;-2.518;2023-05-23T12:53:45;21.00;95.80
48860;DHT22;34679;51.436;-2.518;2023-05-23T12:56:11;20.90;96.00
48860;DHT22;34679;51.436;-2.518;2023-05-23T12:58:37;20.90;95.80
48860;DHT22;34679;51.436;-2.518;2023-05-23T13:01:03;20.80;96.10
48860;DHT22;34679;51.436;-2.518;2023-05-23T13:03:29;20.70;95.70
48860;DHT22;34679;51.436;-2.518;2023-05-23T13:05:56;21.10;95.70
48860;DHT22;34679;51.436;-2.518;2023-05-23T13:08:25;21.40;95.20
48860;DHT22;34679;51.436;-2.518;2023-05-23T13:10:55;21.60;95.10
48860;DHT22;34679;51.436;-2.518;2023-05-23T13:13:21;21.70;95.00
48860;DHT22;34679;51.436;-2.518;2023-05-23T13:15:47;21.70;94.90
48860;DHT22;34679;51.436;-2.518;2023-05-23T13:18:13;21.20;95.40
48860;DHT22;34679;51.436;-2.518;2023-05-23T13:20:39;21.90;94.50
48860;DHT22;34679;51.436;-2.518;2023-05-23T13:23:06;21.90;94.90
48860;DHT22;34679;51.436;-2.518;2023-05-23T13:25:33;21.60;95.50
48860;DHT22;34679;51.436;-2.518;2023-05-23T13:27:59;21.30;95.30
48860;DHT22;34679;51.436;-2.518;2023-05-23T13:30:26;21.60;95.00
48860;DHT22;34679;51.436;-2.518;2023-05-23T13:32:52;21.40;95.10
48860;DHT22;34679;51.436;-2.518;2023-05-23T13:35:18;20.90;95.40
48860;DHT22;34679;51.436;-2.518;2023-05-23T13:37:44;20.90;95.60
48860;DHT22;34679;51.436;-2.518;2023-05-23T13:40:17;21.20;95.30
48860;DHT22;34679;51.436;-2.518;2023-05-23T13:42:44;21.30;95.30
48860;DHT22;34679;51.436;-2.518;2023-05-23T13:45:11;21.80;94.90
48860;DHT22;34679;51.436;-2.518;2023-05-23T13:47:36;22.00;94.70
48860;DHT22;34679;51.436;-2.518;2023-05-23T13:50:03;22.10;95.00
48860;DHT22;34679;51.436;-2.518;2023-05-23T13:52:29;21.50;95.20
48860;DHT22;34679;51.436;-2.518;2023-05-23T13:54:55;20.80;95.80
48860;DHT22;34679;51.436;-2.518;2023-05-23T13:57:21;20.90;96.30
48860;DHT22;34679;51.436;-2.518;2023-05-23T13:59:46;21.00;95.90
48860;DHT22;34679;51.436;-2.518;2023-05-23T14:02:12;21.50;95.40
48860;DHT22;34679;51.436;-2.518;2023-05-23T14:04:38;21.80;95.60
48860;DHT22;34679;51.436;-2.518;2023-05-23T14:07:04;21.70;95.20
48860;DHT22;34679;51.436;-2.518;2023-05-23T14:09:29;21.70;95.60
48860;DHT22;34679;51.436;-2.518;2023-05-23T14:11:55;21.80;95.10
48860;DHT22;34679;51.436;-2.518;2023-05-23T14:14:21;21.80;95.20
48860;DHT22;34679;51.436;-2.518;2023-05-23T14:16:49;21.60;95.60
48860;DHT22;34679;51.436;-2.518;2023-05-23T14:19:16;21.60;95.30
48860;DHT22;34679;51.436;-2.518;2023-05-23T14:21:41;21.50;95.70
48860;DHT22;34679;51.436;-2.518;2023-05-23T14:24:07;21.30;95.90
48860;DHT22;34679;51.436;-2.518;2023-05-23T14:26:33;21.20;95.60
48860;DHT22;34679;51.436;-2.518;2023-05-23T14:28:58;21.40;95.50
48860;DHT22;34679;51.436;-2.518;2023-05-23T14:31:24;21.60;96.10
48860;DHT22;34679;51.436;-2.518;2023-05-23T14:33:50;21.80;95.20
48860;DHT22;34679;51.436;-2.518;2023-05-23T14:36:16;21.70;95.50
48860;DHT22;34679;51.436;-2.518;2023-05-23T14:38:42;21.40;95.40
48860;DHT22;34679;51.436;-2.518;2023-05-23T14:41:13;21.20;95.50
48860;DHT22;34679;51.436;-2.518;2023-05-23T14:43:39;20.90;96.30
48860;DHT22;34679;51.436;-2.518;2023-05-23T14:46:05;20.80;96.10
48860;DHT22;34679;51.436;-2.518;2023-05-23T14:48:31;20.80;96.20
48860;DHT22;34679;51.436;-2.518;2023-05-23T14:50:57;20.50;96.20
48860;DHT22;34679;51.436;-2.518;2023-05-23T14:53:29;20.80;96.30
48860;DHT22;34679;51.436;-2.518;2023-05-23T14:55:55;21.00;96.10
48860;DHT22;34679;51.436;-2.518;2023-05-23T14:58:21;20.80;96.30
48860;DHT22;34679;51.436;-2.518;2023-05-23T15:00:47;20.40;96.40
48860;DHT22;34679;51.436;-2.518;2023-05-23T15:03:14;20.30;96.90
48860;DHT22;34679;51.436;-2.518;2023-05-23T15:05:40;20.40;96.40
48860;DHT22;34679;51.436;-2.518;2023-05-23T15:08:06;20.30;96.20
48860;DHT22;34679;51.436;-2.518;2023-05-23T15:10:32;20.50;95.40
48860;DHT22;34679;51.436;-2.518;2023-05-23T15:12:57;20.70;95.50
48860;DHT22;34679;51.436;-2.518;2023-05-23T15:15:23;20.70;95.40
48860;DHT22;34679;51.436;-2.518;2023-05-23T15:17:51;20.50;95.30
48860;DHT22;34679;51.436;-2.518;2023-05-23T15:20:17;20.40;95.60
48860;DHT22;34679;51.436;-2.518;2023-05-23T15:22:42;20.60;95.40
48860;DHT22;34679;51.436;-2.518;2023-05-23T15:25:09;20.90;95.10
48860;DHT22;34679;51.436;-2.518;2023-05-23T15:27:35;21.10;95.00
48860;DHT22;34679;51.436;-2.518;2023-05-23T15:30:02;21.20;95.10
48860;DHT22;34679;51.436;-2.518;2023-05-23T15:32:28;21.20;95.20
48860;DHT22;34679;51.436;-2.518;2023-05-23T15:34:53;20.90;95.50
48860;DHT22;34679;51.436;-2.518;2023-05-23T15:37:19;20.80;95.80
48860;DHT22;34679;51.436;-2.518;2023-05-23T15:39:45;20.50;96.00
48860;DHT22;34679;51.436;-2.518;2023-05-23T15:42:12;20.40;96.40
48860;DHT22;34679;51.436;-2.518;2023-05-23T15:44:38;20.30;96.80